D39

Sauk Centre Municipal Airport

Sauk Centre, Minnesota, USA
METAR KD39 140235Z AUTO 00000KT 10SM CLR M04/M05 A3010 RMK AO2 T10441052
Observed Flight Rules
Dec-14 @ 02:35 UTC (31 minutes ago) Visual Flight Rules
Visibility Clouds
10 miles
  • Clear skies
Temperatures Readings
Current -4°C / 25°F
Dewpoint -5°C / 23°F
Humidity 93%
Altimeter 30.1" Hg
Pressure 1019 hPa
Elevation 380
METAR KD39 140235Z AUTO 00000KT 10SM CLR M04/M05 A3010 RMK AO2 T10441052
Observed Flight Rules
Dec-14 @ 02:35 UTC
(31 minutes ago)
VFR
Clouds
  • Clear skies
Temperature Dewpoint
-4°C / 25°F -5°C / 23°F
Humidity Altimeter Pressure
93% 30.1" Hg 1019 hPa